Terminal Aerodrome Forecast
Issued by NWS

Home | Current Version | Previous Version | Graphics & Text | Print | Product List | Glossary On
Versions: 1 2 3 4 5 6 7 8 9 10 11 12 13 14 15 16 17
449
FTUS43 KBIS 070200 AAA
TAFMOT
TAF AMD
KMOT 070200Z 0702/0724 28027G34KT 2SM -SN SCT025 OVC045
      TEMPO 0702/0704 1SM -SN BLSN OVC025
     FM070400 30025G35KT 2SM BLSN OVC025
     FM071600 29024KT 6SM BLSN OVC025=

USA.gov is the U.S. government's official web portal to all federal, state and local government web resources and services.